Time;durP1;ratioP1;P1;durP2;ratioP2;P2;SDS_P1;SDS_P2;PMS_P1;PMS_P2;Temp;Humidity;BMP_temperature;BMP_pressure;BME280_temperature;BME280_humidity;BME280_pressure;Samples;Min_cycle;Max_cycle;Signal;HPM_P1;HPM_P2
2024/03/16 00:02:00;;;;;;;67.50;33.90;;;;;;;2.29;77.02;98973.64;105599;1253;97886;-76
2024/03/16 00:04:32;;;;;;;58.10;32.30;;;;;;;2.28;76.83;98972.63;105109;1254;110687;-76
2024/03/16 00:07:00;;;;;;;55.60;28.50;;;;;;;2.28;76.96;98974.03;105459;1254;98780;-75
2024/03/16 00:09:28;;;;;;;57.80;29.40;;;;;;;2.27;76.92;98972.85;105431;1266;107324;-79
2024/03/16 00:11:56;;;;;;;61.10;29.90;;;;;;;2.24;76.66;98969.98;105418;1257;98094;-74
2024/03/16 00:14:23;;;;;;;56.50;28.90;;;;;;;2.19;76.81;98968.42;105554;1256;99362;-75
2024/03/16 00:16:51;;;;;;;59.20;28.80;;;;;;;2.15;76.94;98965.63;105451;1256;111283;-75
2024/03/16 00:19:19;;;;;;;55.00;28.80;;;;;;;2.13;76.88;98966.04;105199;1256;99149;-80
2024/03/16 00:21:46;;;;;;;54.50;27.50;;;;;;;2.12;77.14;98968.36;105292;1254;107721;-75
2024/03/16 00:24:14;;;;;;;54.30;25.00;;;;;;;2.11;76.92;98968.23;105462;1254;97946;-78
2024/03/16 00:26:42;;;;;;;55.70;27.30;;;;;;;2.08;76.81;98964.83;105479;1257;98569;-75
2024/03/16 00:29:11;;;;;;;55.40;27.70;;;;;;;2.03;77.05;98965.40;105432;1256;110831;-76
2024/03/16 00:31:39;;;;;;;56.10;26.00;;;;;;;1.96;76.80;98966.52;105430;1256;98031;-75
2024/03/16 00:34:08;;;;;;;57.90;28.10;;;;;;;1.94;77.00;98962.08;105096;1256;107297;-76
2024/03/16 00:36:36;;;;;;;54.10;27.50;;;;;;;1.93;76.88;98959.98;105402;1256;97989;-75
2024/03/16 00:39:14;;;;;;;56.40;27.40;;;;;;;1.94;77.10;98957.15;105723;1256;98139;-75
2024/03/16 00:41:44;;;;;;;49.00;25.50;;;;;;;1.93;76.98;98950.88;105360;1254;111320;-76
2024/03/16 00:44:11;;;;;;;56.10;26.20;;;;;;;1.92;76.80;98951.61;105454;1259;98051;-78
2024/03/16 00:46:39;;;;;;;55.00;28.00;;;;;;;1.87;76.60;98946.60;105218;1266;107619;-73
2024/03/16 00:49:07;;;;;;;52.30;27.20;;;;;;;1.80;76.94;98947.19;105616;1266;98014;-75
2024/03/16 00:51:34;;;;;;;52.30;24.60;;;;;;;1.71;76.74;98943.86;105615;1257;97963;-75
2024/03/16 00:54:02;;;;;;;54.00;24.80;;;;;;;1.69;76.87;98941.17;105161;1257;110866;-75
2024/03/16 00:56:30;;;;;;;51.20;24.80;;;;;;;1.69;76.67;98942.20;105361;1256;98028;-74
2024/03/16 00:58:58;;;;;;;47.00;24.50;;;;;;;1.71;77.25;98942.28;105317;1256;107857;-79
2024/03/16 01:01:33;;;;;;;48.10;24.20;;;;;;;1.73;76.89;98942.05;105128;1257;98017;-80
2024/03/16 01:04:06;;;;;;;53.70;23.80;;;;;;;1.72;77.13;98938.27;105723;1254;97964;-75
2024/03/16 01:06:34;;;;;;;48.70;24.40;;;;;;;1.71;77.23;98941.08;105432;1254;110271;-76
2024/03/16 01:09:03;;;;;;;44.40;22.90;;;;;;;1.73;77.05;98936.46;105409;1253;97941;-76
2024/03/16 01:11:33;;;;;;;45.20;22.00;;;;;;;1.73;77.00;98936.63;105474;1258;107100;-76
2024/03/16 01:14:01;;;;;;;45.90;23.80;;;;;;;1.74;76.84;98933.45;105405;1254;99273;-77
2024/03/16 01:16:29;;;;;;;46.90;22.30;;;;;;;1.75;77.27;98931.48;105450;1256;97983;-76
2024/03/16 01:18:57;;;;;;;44.30;21.90;;;;;;;1.77;77.02;98926.51;105201;1256;111098;-76
2024/03/16 01:21:27;;;;;;;51.80;23.50;;;;;;;1.78;77.24;98928.03;105250;1257;99707;-75
2024/03/16 01:23:55;;;;;;;51.20;25.30;;;;;;;1.77;76.96;98930.16;105315;1254;108473;-76
2024/03/16 01:26:22;;;;;;;46.40;22.20;;;;;;;1.75;77.22;98928.52;105545;1257;97990;-75
2024/03/16 01:28:50;;;;;;;53.90;25.00;;;;;;;1.72;76.99;98928.63;105364;1254;99164;-76
2024/03/16 01:31:18;;;;;;;52.50;23.60;;;;;;;1.69;76.97;98927.69;105452;1256;111480;-76
2024/03/16 01:33:45;;;;;;;45.30;20.90;;;;;;;1.68;77.14;98927.02;105189;1256;98011;-76
2024/03/16 01:36:14;;;;;;;45.90;22.90;;;;;;;1.69;77.11;98927.16;105292;1256;107932;-75
2024/03/16 01:38:41;;;;;;;45.70;22.60;;;;;;;1.71;76.99;98924.13;105454;1255;99195;-80
2024/03/16 01:41:10;;;;;;;45.30;21.80;;;;;;;1.71;77.13;98927.09;105340;1260;97951;-77
2024/03/16 01:43:38;;;;;;;47.70;23.20;;;;;;;1.72;77.14;98921.61;105373;1256;111248;-76
2024/03/16 01:46:08;;;;;;;47.90;23.40;;;;;;;1.73;77.40;98922.46;105418;1254;97869;-76
2024/03/16 01:48:36;;;;;;;49.90;23.10;;;;;;;1.73;77.26;98918.10;105771;1256;107678;-76
2024/03/16 01:51:04;;;;;;;52.30;23.70;;;;;;;1.73;77.12;98916.34;105547;1257;99241;-74
2024/03/16 01:53:35;;;;;;;42.80;21.90;;;;;;;1.75;77.43;98918.02;105396;1256;99301;-75
2024/03/16 01:56:06;;;;;;;44.60;20.90;;;;;;;1.76;77.23;98919.91;105515;1256;111390;-74
2024/03/16 01:58:42;;;;;;;41.60;21.50;;;;;;;1.76;77.27;98921.48;105592;1256;97958;-74
2024/03/16 02:01:10;;;;;;;48.10;22.60;;;;;;;1.77;77.34;98920.55;105361;1254;107144;-76
2024/03/16 02:03:39;;;;;;;44.30;21.50;;;;;;;1.77;77.26;98920.21;105486;1254;98048;-76
2024/03/16 02:06:07;;;;;;;41.00;21.00;;;;;;;1.76;77.54;98925.33;105234;1256;98015;-75
2024/03/16 02:08:34;;;;;;;39.90;21.40;;;;;;;1.74;77.32;98919.83;105535;1256;110873;-76
2024/03/16 02:11:02;;;;;;;37.60;19.70;;;;;;;1.71;77.35;98920.79;105223;1254;97939;-75
2024/03/16 02:13:30;;;;;;;36.10;19.20;;;;;;;1.70;77.34;98920.83;105609;1258;107084;-76
2024/03/16 02:15:58;;;;;;;42.20;21.80;;;;;;;1.70;77.43;98922.05;105258;1254;97981;-76
2024/03/16 02:18:25;;;;;;;44.60;21.70;;;;;;;1.70;77.26;98919.09;105533;1257;98357;-79
2024/03/16 02:20:54;;;;;;;42.50;21.30;;;;;;;1.68;77.46;98918.13;105410;1256;111202;-75
2024/03/16 02:23:22;;;;;;;34.30;18.70;;;;;;;1.66;77.09;98918.54;105421;1271;98035;-78
2024/03/16 02:25:49;;;;;;;41.90;20.60;;;;;;;1.63;77.14;98918.63;105366;1256;107031;-76
2024/03/16 02:28:17;;;;;;;44.00;21.40;;;;;;;1.64;77.32;98915.48;105400;1257;97953;-77
2024/03/16 02:30:45;;;;;;;43.20;20.30;;;;;;;1.64;77.14;98912.66;105459;1253;99206;-75
2024/03/16 02:33:14;;;;;;;33.40;18.70;;;;;;;1.64;77.37;98906.21;105532;1256;111266;-76
2024/03/16 02:35:42;;;;;;;36.90;17.80;;;;;;;1.63;77.62;98906.79;105379;1257;99356;-75
2024/03/16 02:38:10;;;;;;;36.00;16.90;;;;;;;1.64;77.42;98900.94;105176;1254;106158;-76
2024/03/16 02:40:37;;;;;;;23.70;13.10;;;;;;;1.72;77.78;98902.41;105639;1254;97960;-76
2024/03/16 02:43:05;;;;;;;23.60;11.50;;;;;;;1.89;77.99;98898.79;105423;1257;97962;-76
2024/03/16 02:45:33;;;;;;;18.10;9.30;;;;;;;2.22;78.47;98897.80;105419;1256;111845;-76
2024/03/16 02:48:01;;;;;;;15.60;8.30;;;;;;;2.50;78.78;98892.44;105521;1256;97973;-77
2024/03/16 02:50:29;;;;;;;20.50;9.50;;;;;;;2.73;78.63;98890.58;106441;1255;108076;-79
2024/03/16 02:52:57;;;;;;;13.00;6.70;;;;;;;2.99;78.76;98891.23;105438;1259;98094;-76
2024/03/16 02:55:24;;;;;;;14.30;8.10;;;;;;;3.24;79.03;98887.30;105646;1256;97996;-76
2024/03/16 02:57:52;;;;;;;15.00;7.80;;;;;;;3.45;78.88;98887.73;105225;1257;110364;-76
2024/03/16 03:00:21;;;;;;;16.20;7.90;;;;;;;3.64;78.79;98890.02;105415;1259;97894;-76
2024/03/16 03:02:49;;;;;;;12.40;6.90;;;;;;;3.80;78.68;98887.34;105883;1259;106772;-77
2024/03/16 03:05:20;;;;;;;15.00;7.70;;;;;;;3.97;78.72;98887.08;105468;1257;98779;-74
2024/03/16 03:07:48;;;;;;;14.00;7.80;;;;;;;4.09;78.48;98884.88;105336;1252;97954;-75
2024/03/16 03:10:16;;;;;;;11.70;6.50;;;;;;;4.19;78.61;98886.16;105366;1256;110698;-77
2024/03/16 03:12:44;;;;;;;14.70;7.50;;;;;;;4.28;78.45;98889.77;105372;1253;97955;-76
2024/03/16 03:15:15;;;;;;;11.30;7.00;;;;;;;4.36;78.52;98888.84;105521;1272;107544;-76
2024/03/16 03:17:43;;;;;;;11.70;7.10;;;;;;;4.41;78.46;98888.76;105402;1267;99168;-74
2024/03/16 03:20:11;;;;;;;14.40;7.70;;;;;;;4.46;78.35;98889.02;105325;1256;98623;-75
2024/03/16 03:22:38;;;;;;;14.20;8.20;;;;;;;4.48;78.20;98890.02;105508;1256;110758;-77
2024/03/16 03:25:06;;;;;;;11.50;7.30;;;;;;;4.51;78.33;98889.34;105360;1256;98081;-75
2024/03/16 03:27:34;;;;;;;15.70;8.40;;;;;;;4.55;78.31;98890.34;105466;1254;106620;-75
2024/03/16 03:30:02;;;;;;;14.10;7.50;;;;;;;4.58;78.11;98889.88;105212;1256;97976;-77
2024/03/16 03:32:30;;;;;;;20.50;10.80;;;;;;;4.56;78.16;98892.92;105246;1257;98047;-74
2024/03/16 03:34:57;;;;;;;19.70;11.00;;;;;;;4.50;78.02;98895.89;105286;1254;110068;-77
2024/03/16 03:37:25;;;;;;;21.70;12.10;;;;;;;4.39;77.69;98897.47;105246;1256;97936;-75
2024/03/16 03:39:53;;;;;;;26.00;12.70;;;;;;;4.25;77.61;98900.62;105454;1258;107712;-76
2024/03/16 03:42:29;;;;;;;22.40;11.90;;;;;;;4.11;77.52;98904.79;105158;1254;97991;-82
2024/03/16 03:45:10;;;;;;;24.30;13.10;;;;;;;4.00;77.47;98904.11;105222;1259;97976;-77
2024/03/16 03:48:00;;;;;;;26.80;13.60;;;;;;;3.88;77.65;98906.77;105197;1257;110616;-75
2024/03/16 03:50:29;;;;;;;18.30;9.80;;;;;;;3.81;77.72;98904.16;105511;1256;98053;-79
2024/03/16 03:52:59;;;;;;;16.70;9.50;;;;;;;3.81;78.02;98904.48;105264;1257;107568;-75
2024/03/16 03:55:27;;;;;;;16.40;8.80;;;;;;;3.87;78.07;98905.27;105449;1256;98041;-75
2024/03/16 03:57:56;;;;;;;17.00;9.70;;;;;;;3.94;78.39;98908.42;105407;1256;99184;-76
2024/03/16 04:00:24;;;;;;;14.40;8.00;;;;;;;4.05;78.51;98909.15;105382;1256;111016;-77
2024/03/16 04:02:52;;;;;;;18.10;8.90;;;;;;;4.16;78.45;98907.89;105372;1253;97936;-75
2024/03/16 04:05:20;;;;;;;17.10;9.50;;;;;;;4.26;78.36;98913.04;105492;1257;107081;-77
2024/03/16 04:07:48;;;;;;;22.00;9.60;;;;;;;4.37;78.47;98913.90;105515;1256;97904;-75
2024/03/16 04:10:16;;;;;;;16.10;9.70;;;;;;;4.46;78.43;98911.70;105420;1256;97960;-78
2024/03/16 04:12:45;;;;;;;14.80;8.20;;;;;;;4.53;78.47;98908.52;105380;1256;111301;-77
2024/03/16 04:15:14;;;;;;;13.90;7.90;;;;;;;4.59;78.37;98906.30;105404;1256;98092;-77
2024/03/16 04:17:41;;;;;;;14.50;7.30;;;;;;;4.61;78.32;98909.02;105534;1257;107587;-77
2024/03/16 04:20:12;;;;;;;16.80;7.80;;;;;;;4.65;78.37;98905.14;105425;1257;98053;-76
2024/03/16 04:22:41;;;;;;;14.50;7.20;;;;;;;4.72;78.28;98903.71;105367;1257;97934;-75
2024/03/16 04:25:14;;;;;;;15.40;7.60;;;;;;;4.77;78.37;98902.41;105534;1256;111166;-75
2024/03/16 04:27:46;;;;;;;17.80;8.00;;;;;;;4.80;78.34;98902.82;105377;1256;98081;-76
2024/03/16 04:30:20;;;;;;;13.10;6.50;;;;;;;4.83;78.34;98897.58;105244;1267;107609;-76
2024/03/16 04:32:59;;;;;;;15.20;7.60;;;;;;;4.86;78.35;98903.02;105295;1256;97901;-81
2024/03/16 04:35:27;;;;;;;15.70;8.40;;;;;;;4.90;78.36;98905.58;105131;1256;98240;-78
2024/03/16 04:37:55;;;;;;;13.70;8.30;;;;;;;4.95;78.29;98901.52;105288;1266;111017;-75
2024/03/16 04:40:25;;;;;;;14.30;7.80;;;;;;;4.98;78.36;98904.15;105610;1256;97948;-75
2024/03/16 04:42:53;;;;;;;14.30;8.20;;;;;;;5.03;78.38;98905.31;105537;1265;107583;-74
2024/03/16 04:45:22;;;;;;;13.10;8.20;;;;;;;5.09;78.48;98902.91;105458;1260;97964;-78
2024/03/16 04:48:04;;;;;;;15.60;8.20;;;;;;;5.13;78.62;98902.15;105475;1256;99276;-76
2024/03/16 04:50:38;;;;;;;13.50;7.20;;;;;;;5.16;78.43;98908.32;105319;1256;109232;-75
2024/03/16 04:53:11;;;;;;;14.90;7.50;;;;;;;5.17;78.37;98901.90;105327;1257;97979;-75
2024/03/16 04:55:39;;;;;;;16.10;8.00;;;;;;;5.25;78.42;98905.05;105424;1257;107912;-77
2024/03/16 04:58:08;;;;;;;14.00;7.60;;;;;;;5.30;78.44;98909.67;105444;1254;99306;-75
2024/03/16 05:00:40;;;;;;;15.60;8.90;;;;;;;5.35;78.42;98911.16;105422;1256;97986;-75
2024/03/16 05:03:17;;;;;;;13.30;7.60;;;;;;;5.39;78.51;98908.88;105606;1256;111193;-75
2024/03/16 05:05:51;;;;;;;14.60;7.80;;;;;;;5.44;78.47;98912.30;105240;1257;99292;-77
2024/03/16 05:08:23;;;;;;;15.90;8.30;;;;;;;5.47;78.51;98912.48;105399;1266;107914;-75
2024/03/16 05:10:54;;;;;;;14.90;7.80;;;;;;;5.53;78.37;98912.84;105388;1260;98047;-76
2024/03/16 05:13:28;;;;;;;12.90;6.80;;;;;;;5.57;78.48;98915.97;105556;1256;97981;-75
2024/03/16 05:16:06;;;;;;;12.70;7.10;;;;;;;5.61;78.53;98916.81;105129;1257;110948;-78
2024/03/16 05:18:36;;;;;;;12.90;7.50;;;;;;;5.64;78.47;98916.45;105343;1257;97905;-80
2024/03/16 05:21:15;;;;;;;15.90;7.90;;;;;;;5.68;78.27;98922.77;105377;1256;107632;-76
2024/03/16 05:23:50;;;;;;;15.50;8.80;;;;;;;5.73;78.40;98922.85;105247;1256;97976;-77
2024/03/16 05:26:18;;;;;;;13.90;8.60;;;;;;;5.78;78.31;98920.80;105486;1257;97950;-77
2024/03/16 05:28:55;;;;;;;14.10;7.10;;;;;;;5.83;78.42;98922.65;105457;1256;111320;-77
2024/03/16 05:31:27;;;;;;;16.30;7.40;;;;;;;5.89;78.45;98920.38;105377;1257;97951;-75
2024/03/16 05:33:58;;;;;;;12.30;6.80;;;;;;;5.96;78.39;98922.47;105278;1259;107395;-76
2024/03/16 05:36:30;;;;;;;;;;;;;;;6.04;78.43;98926.48;105386;1257;98041;-75
2024/03/16 05:39:08;;;;;;;16.10;8.20;;;;;;;6.07;78.42;98923.82;105361;1256;97981;-76
2024/03/16 05:41:36;;;;;;;14.10;7.60;;;;;;;6.13;78.58;98929.80;105352;1256;111269;-76
2024/03/16 05:44:05;;;;;;;13.80;7.20;;;;;;;6.16;78.26;98926.30;105354;1260;97964;-76
2024/03/16 05:46:35;;;;;;;12.90;7.10;;;;;;;6.21;78.37;98927.43;105444;1266;107349;-75
2024/03/16 05:49:07;;;;;;;13.80;8.40;;;;;;;6.26;78.54;98925.73;105401;1256;97939;-76
2024/03/16 05:51:36;;;;;;;11.40;7.10;;;;;;;6.31;78.51;98923.53;105378;1256;97990;-74
2024/03/16 05:54:18;;;;;;;12.60;7.20;;;;;;;6.36;78.62;98922.17;105149;1257;111718;-75
2024/03/16 05:56:46;;;;;;;13.70;7.80;;;;;;;6.43;78.50;98925.52;105400;1257;98074;-76
2024/03/16 05:59:16;;;;;;;16.00;7.70;;;;;;;6.49;78.54;98925.48;105447;1257;108057;-76
2024/03/16 06:01:47;;;;;;;13.60;7.90;;;;;;;6.60;78.62;98917.65;105405;1255;99330;-76
2024/03/16 06:04:23;;;;;;;15.50;8.50;;;;;;;6.71;78.73;98922.43;105366;1264;97870;-75
2024/03/16 06:06:55;;;;;;;15.90;8.70;;;;;;;6.81;78.63;98917.46;106331;1256;111096;-83
2024/03/16 06:09:26;;;;;;;14.20;9.00;;;;;;;6.89;78.45;98922.30;105233;1256;97954;-77
2024/03/16 06:11:54;;;;;;;12.80;8.10;;;;;;;6.98;78.74;98920.15;106590;1256;107957;-75
2024/03/16 06:14:23;;;;;;;14.80;8.00;;;;;;;7.06;78.71;98918.83;105432;1266;97955;-76
2024/03/16 06:16:56;;;;;;;12.50;7.30;;;;;;;7.15;78.67;98919.86;105541;1257;98085;-77
2024/03/16 06:19:34;;;;;;;15.10;8.40;;;;;;;7.23;78.67;98919.20;105196;1258;112061;-76
2024/03/16 06:22:07;;;;;;;14.70;8.10;;;;;;;7.31;78.45;98914.48;105191;1253;99209;-77
2024/03/16 06:24:41;;;;;;;16.50;8.80;;;;;;;7.40;78.51;98923.09;105400;1264;109858;-75
2024/03/16 06:27:14;;;;;;;15.10;8.40;;;;;;;7.47;78.45;98925.16;105421;1256;97970;-80
2024/03/16 06:29:51;;;;;;;12.80;7.40;;;;;;;7.53;78.62;98933.21;105292;1256;97779;-76
2024/03/16 06:32:24;;;;;;;13.50;8.10;;;;;;;7.58;78.39;98931.13;105370;1254;111735;-75
2024/03/16 06:34:53;;;;;;;13.80;8.40;;;;;;;7.65;78.41;98937.39;105215;1258;97945;-77
2024/03/16 06:37:30;;;;;;;15.00;9.20;;;;;;;7.69;78.40;98931.73;105221;1257;107492;-76
2024/03/16 06:39:58;;;;;;;13.20;8.00;;;;;;;7.72;78.36;98939.61;105274;1257;98023;-77
2024/03/16 06:42:31;;;;;;;15.50;8.80;;;;;;;7.74;78.22;98936.48;105285;1257;97980;-77
2024/03/16 06:45:00;;;;;;;15.80;8.60;;;;;;;7.81;78.24;98937.84;105164;1266;111735;-79
2024/03/16 06:47:29;;;;;;;15.30;8.90;;;;;;;7.89;78.42;98940.84;105453;1257;97976;-75
2024/03/16 06:50:15;;;;;;;19.00;8.90;;;;;;;7.97;78.35;98939.66;105198;1257;108542;-74
2024/03/16 06:52:45;;;;;;;13.00;7.60;;;;;;;8.05;78.31;98944.29;105237;1268;98320;-75
2024/03/16 06:55:17;;;;;;;12.70;7.50;;;;;;;8.13;78.23;98946.93;105339;1257;101008;-79
2024/03/16 06:57:51;;;;;;;14.20;8.10;;;;;;;8.18;78.24;98946.02;105204;1257;111057;-75
2024/03/16 07:00:22;;;;;;;12.20;7.50;;;;;;;8.25;78.17;98946.67;105411;1257;97966;-76
2024/03/16 07:02:51;;;;;;;17.20;9.20;;;;;;;8.31;78.10;98948.06;105784;1257;107115;-75
2024/03/16 07:05:22;;;;;;;13.40;8.40;;;;;;;8.37;78.11;98947.33;105521;1267;98058;-75
2024/03/16 07:07:49;;;;;;;14.10;8.20;;;;;;;8.47;78.06;98944.20;105627;1256;99308;-74
2024/03/16 07:10:17;;;;;;;17.10;8.80;;;;;;;8.54;78.05;98945.89;108511;1254;112100;-75
2024/03/16 07:12:44;;;;;;;13.00;7.90;;;;;;;8.59;77.98;98949.44;108704;1253;95932;-75
2024/03/16 07:15:15;;;;;;;13.40;7.80;;;;;;;8.66;77.73;98949.02;108710;1253;107916;-75
2024/03/16 07:17:43;;;;;;;16.90;9.50;;;;;;;8.72;77.86;98951.06;108486;1254;97887;-76
2024/03/16 07:20:12;;;;;;;15.90;9.00;;;;;;;8.77;77.72;98950.39;105388;1257;99411;-75
2024/03/16 07:22:40;;;;;;;14.10;7.80;;;;;;;8.81;77.60;98952.45;105490;1257;110851;-74
2024/03/16 07:25:08;;;;;;;16.10;8.90;;;;;;;8.86;77.52;98948.23;105316;1263;97906;-73
2024/03/16 07:27:36;;;;;;;15.20;9.20;;;;;;;8.91;77.68;98948.21;105540;1262;107603;-74
2024/03/16 07:30:04;;;;;;;16.80;9.80;;;;;;;8.97;77.61;98951.04;105187;1270;98012;-77
2024/03/16 07:32:32;;;;;;;15.10;9.90;;;;;;;8.99;77.26;98953.73;105312;1265;97982;-74
2024/03/16 07:35:00;;;;;;;17.80;9.60;;;;;;;9.01;77.32;98956.77;105723;1266;112504;-74
2024/03/16 07:37:27;;;;;;;14.40;7.80;;;;;;;9.07;77.28;98951.55;105372;1257;97966;-75
2024/03/16 07:39:55;;;;;;;14.90;9.00;;;;;;;9.13;77.33;98953.30;105369;1257;107625;-74
2024/03/16 07:42:23;;;;;;;15.60;8.90;;;;;;;9.18;77.23;98956.30;105583;1257;97954;-74
2024/03/16 07:44:50;;;;;;;16.10;9.60;;;;;;;9.24;77.24;98955.89;105519;1254;98233;-75
2024/03/16 07:47:18;;;;;;;16.60;8.80;;;;;;;9.29;77.17;98949.71;105670;1256;110235;-75
2024/03/16 07:49:46;;;;;;;16.50;10.10;;;;;;;9.35;77.07;98953.05;105551;1264;97947;-75
2024/03/16 07:52:14;;;;;;;15.20;9.50;;;;;;;9.41;77.09;98954.20;105460;1266;108015;-74
2024/03/16 07:54:42;;;;;;;20.80;10.80;;;;;;;9.48;77.18;98955.66;105514;1264;98843;-74
2024/03/16 07:57:10;;;;;;;16.30;9.50;;;;;;;9.55;76.91;98959.23;105333;1256;98245;-75
2024/03/16 07:59:37;;;;;;;14.60;8.50;;;;;;;9.62;76.97;98956.31;105511;1257;110735;-75
2024/03/16 08:02:06;;;;;;;16.30;8.80;;;;;;;9.69;76.77;98958.27;105519;1254;99356;-74
2024/03/16 08:04:34;;;;;;;17.10;9.50;;;;;;;9.74;76.70;98955.79;105501;1267;105202;-75
2024/03/16 08:07:05;;;;;;;15.80;9.10;;;;;;;9.81;76.74;98957.41;106012;1256;98019;-72
2024/03/16 08:09:33;;;;;;;14.10;8.60;;;;;;;9.89;76.65;98957.77;105420;1256;98102;-75
2024/03/16 08:12:00;;;;;;;14.30;8.90;;;;;;;9.95;76.64;98958.19;105424;1256;111165;-75
2024/03/16 08:14:34;;;;;;;15.20;8.90;;;;;;;10.01;76.52;98961.16;105394;1258;97973;-76
2024/03/16 08:17:05;;;;;;;13.70;8.90;;;;;;;10.09;76.55;98964.28;105428;1262;107593;-75
2024/03/16 08:19:33;;;;;;;15.60;9.00;;;;;;;10.17;76.30;98969.07;105417;1257;98136;-73
2024/03/16 08:22:00;;;;;;;17.20;9.70;;;;;;;10.22;76.28;98969.40;105276;1264;99441;-74
2024/03/16 08:24:28;;;;;;;15.20;8.70;;;;;;;10.25;76.16;98969.84;105414;1256;111116;-74
2024/03/16 08:26:59;;;;;;;15.40;8.30;;;;;;;10.30;76.09;98972.55;105569;1259;98008;-75
2024/03/16 08:29:27;;;;;;;16.50;8.70;;;;;;;10.34;76.07;98972.80;105247;1257;107224;-76
2024/03/16 08:31:55;;;;;;;13.00;7.70;;;;;;;10.41;75.98;98968.57;105803;1266;99190;-75
2024/03/16 08:34:23;;;;;;;14.60;8.60;;;;;;;10.48;75.82;98966.80;105872;1256;97951;-75
2024/03/16 08:36:51;;;;;;;14.70;8.20;;;;;;;10.54;75.84;98967.44;105710;1256;111304;-75
2024/03/16 08:39:19;;;;;;;17.10;8.80;;;;;;;10.60;75.82;98970.23;106183;1252;97845;-76
2024/03/16 08:41:47;;;;;;;14.40;8.70;;;;;;;10.65;75.93;98968.59;105576;1266;108159;-76
2024/03/16 08:44:15;;;;;;;14.40;8.90;;;;;;;10.72;75.78;98967.52;105729;1265;97986;-74
2024/03/16 08:46:43;;;;;;;14.80;8.90;;;;;;;10.79;75.73;98969.35;105649;1257;97948;-75
2024/03/16 08:49:11;;;;;;;15.20;8.80;;;;;;;10.88;75.58;98970.21;105424;1259;111268;-75
2024/03/16 08:51:39;;;;;;;13.10;8.30;;;;;;;10.96;75.72;98966.78;105372;1257;97926;-74
2024/03/16 08:54:07;;;;;;;14.50;8.70;;;;;;;11.07;75.62;98967.95;105380;1257;107717;-74
2024/03/16 08:56:35;;;;;;;14.20;8.70;;;;;;;11.15;75.69;98965.20;105708;1254;98046;-74
2024/03/16 08:59:03;;;;;;;14.40;8.70;;;;;;;11.21;75.60;98969.15;105220;1253;98583;-74
2024/03/16 09:01:31;;;;;;;12.70;8.10;;;;;;;11.31;75.68;98970.72;105572;1254;110787;-74
2024/03/16 09:03:59;;;;;;;15.70;8.50;;;;;;;11.37;75.46;98968.30;105468;1268;97950;-75
2024/03/16 09:06:27;;;;;;;11.90;7.50;;;;;;;11.43;75.31;98968.90;106123;1256;107659;-73
2024/03/16 09:08:58;;;;;;;11.80;7.40;;;;;;;11.48;75.32;98970.66;105437;1267;98046;-76
2024/03/16 09:11:26;;;;;;;13.50;8.00;;;;;;;11.49;75.09;98973.25;105550;1254;97919;-76
2024/03/16 09:13:54;;;;;;;15.80;8.50;;;;;;;11.49;75.16;98974.87;105523;1254;109726;-79
2024/03/16 09:16:22;;;;;;;13.50;8.70;;;;;;;11.50;75.11;98976.20;105355;1257;98100;-78
2024/03/16 09:18:50;;;;;;;15.50;9.40;;;;;;;11.52;75.13;98973.55;105563;1256;107693;-74
2024/03/16 09:21:17;;;;;;;14.40;8.50;;;;;;;11.54;74.99;98969.62;105569;1256;98041;-74
2024/03/16 09:23:45;;;;;;;14.30;8.50;;;;;;;11.54;74.85;98974.97;105666;1254;97940;-75
2024/03/16 09:26:12;;;;;;;15.60;9.10;;;;;;;11.55;74.88;98971.38;105602;1254;110958;-75
2024/03/16 09:28:42;;;;;;;13.00;8.50;;;;;;;11.57;74.80;98973.55;105259;1257;99284;-75
2024/03/16 09:31:10;;;;;;;15.10;9.10;;;;;;;11.57;74.79;98972.79;105361;1257;107666;-73
2024/03/16 09:33:38;;;;;;;13.90;8.90;;;;;;;11.59;74.83;98976.56;105357;1258;98903;-74
2024/03/16 09:36:08;;;;;;;15.70;9.10;;;;;;;11.59;74.80;98976.54;105255;1257;98044;-75
2024/03/16 09:38:36;;;;;;;18.70;10.40;;;;;;;11.58;74.67;98977.17;105209;1257;111627;-74
2024/03/16 09:41:04;;;;;;;15.30;9.70;;;;;;;11.57;74.71;98979.40;105334;1254;98764;-76
2024/03/16 09:43:33;;;;;;;19.80;10.80;;;;;;;11.56;74.55;98978.19;105299;1270;107625;-74
2024/03/16 09:46:04;;;;;;;14.80;9.20;;;;;;;11.54;74.39;98979.93;105355;1256;97964;-75
2024/03/16 09:48:31;;;;;;;17.90;10.00;;;;;;;11.51;74.17;98983.23;105399;1256;97947;-75
2024/03/16 09:50:59;;;;;;;20.80;11.70;;;;;;;11.47;74.10;98985.66;105647;1254;113476;-74
2024/03/16 09:53:31;;;;;;;17.40;10.20;;;;;;;11.46;74.26;98986.09;105195;1257;98052;-76
2024/03/16 09:56:04;;;;;;;16.30;10.20;;;;;;;11.48;74.14;98984.86;105249;1254;107607;-76
2024/03/16 09:58:32;;;;;;;16.60;10.10;;;;;;;11.49;74.06;98985.85;105424;1256;98041;-75
2024/03/16 10:01:03;;;;;;;14.30;9.20;;;;;;;11.50;73.86;98990.39;105109;1254;97951;-76
2024/03/16 10:03:31;;;;;;;13.40;9.40;;;;;;;11.52;73.93;98987.97;105491;1254;111189;-75
2024/03/16 10:06:04;;;;;;;14.00;8.80;;;;;;;11.52;73.75;98990.80;105315;1253;97980;-75
2024/03/16 10:08:32;;;;;;;11.70;8.00;;;;;;;11.51;73.85;98989.95;105360;1270;107511;-75
2024/03/16 10:11:12;;;;;;;13.60;8.60;;;;;;;11.53;73.89;98990.54;105354;1254;98590;-76
2024/03/16 10:13:54;;;;;;;13.50;8.20;;;;;;;11.54;73.70;98993.64;105284;1254;98460;-77
2024/03/16 10:16:21;;;;;;;12.00;8.00;;;;;;;11.54;73.54;98986.89;105436;1254;109892;-77
2024/03/16 10:18:52;;;;;;;12.70;9.00;;;;;;;11.56;73.57;98988.19;105417;1261;98044;-76
2024/03/16 10:21:20;;;;;;;15.30;9.30;;;;;;;11.58;73.60;98986.41;105303;1255;107676;-76
2024/03/16 10:23:48;;;;;;;15.60;10.10;;;;;;;11.62;73.66;98988.04;105378;1256;98795;-75
2024/03/16 10:26:16;;;;;;;15.30;9.50;;;;;;;11.65;73.49;98991.92;105469;1254;99341;-75
2024/03/16 10:28:43;;;;;;;15.80;9.60;;;;;;;11.67;73.35;98994.23;105449;1257;111289;-75
2024/03/16 10:31:11;;;;;;;13.10;8.90;;;;;;;11.71;73.43;98992.50;105155;1254;97948;-74
2024/03/16 10:33:39;;;;;;;13.80;8.80;;;;;;;11.74;73.39;98995.30;105141;1257;107591;-75
2024/03/16 10:36:17;;;;;;;14.20;8.50;;;;;;;11.78;73.44;98993.19;105350;1254;98894;-75
2024/03/16 10:38:46;;;;;;;16.80;9.80;;;;;;;11.81;73.42;98990.47;105227;1256;98267;-78
2024/03/16 10:41:16;;;;;;;16.40;9.40;;;;;;;11.82;73.20;98992.70;105325;1257;113216;-76
2024/03/16 10:43:45;;;;;;;16.10;9.50;;;;;;;11.84;73.26;98990.09;105426;1254;97979;-76
2024/03/16 10:46:15;;;;;;;13.90;8.50;;;;;;;11.88;73.07;98990.05;105382;1266;107288;-77
2024/03/16 10:48:43;;;;;;;16.30;9.20;;;;;;;11.95;73.26;98991.02;105104;1257;99267;-75
2024/03/16 10:51:17;;;;;;;13.60;8.30;;;;;;;12.01;73.21;98989.60;105334;1257;98038;-75
2024/03/16 10:53:46;;;;;;;16.20;8.90;;;;;;;12.08;73.21;98987.30;105412;1257;111054;-74
2024/03/16 10:56:15;;;;;;;15.00;8.90;;;;;;;12.15;73.19;98986.23;105607;1254;97986;-75
2024/03/16 10:58:42;;;;;;;16.10;9.50;;;;;;;12.22;73.13;98984.29;105760;1257;105548;-75
2024/03/16 11:03:55;;;;;;;13.10;8.10;;;;;;;12.35;72.99;98986.73;102050;1291;638085;-77
2024/03/16 11:06:23;;;;;;;14.80;9.30;;;;;;;12.38;72.94;98984.17;104795;1266;95363;-77
2024/03/16 11:08:50;;;;;;;14.50;9.20;;;;;;;12.41;72.87;98986.42;106698;1265;95266;-74
2024/03/16 11:11:26;;;;;;;15.10;8.70;;;;;;;12.44;72.82;98983.38;104577;1269;95262;-75
2024/03/16 11:13:56;;;;;;;12.00;8.00;;;;;;;12.46;72.79;98981.61;104815;1279;96230;-76
2024/03/16 11:16:33;;;;;;;13.40;8.90;;;;;;;12.47;72.71;98981.83;104571;1268;142637;-75
2024/03/16 11:19:01;;;;;;;13.00;8.50;;;;;;;12.50;72.58;98983.41;104587;1266;95219;-75
2024/03/16 11:21:33;;;;;;;12.90;8.50;;;;;;;12.50;72.58;98985.85;104903;1263;95197;-73
2024/03/16 11:24:04;;;;;;;16.10;9.40;;;;;;;12.52;72.48;98985.02;104752;1265;108534;-74
2024/03/16 11:26:34;;;;;;;15.70;9.50;;;;;;;12.54;72.61;98982.94;104673;1262;95480;-72
2024/03/16 11:29:00;;;;;;;17.20;10.50;;;;;;;12.55;72.58;98981.26;104759;1278;109239;-74
2024/03/16 11:31:36;;;;;;;13.70;9.20;;;;;;;12.55;72.45;98979.25;104529;1265;96700;-74